createdAt,value
2024-02-22T00:00:43.785Z,59.32
2024-02-22T00:01:43.885Z,57.94
2024-02-22T00:02:43.865Z,58.68
2024-02-22T00:03:43.932Z,59.32
2024-02-22T00:04:44.136Z,58.98
2024-02-22T00:05:44.119Z,60.18
2024-02-22T00:06:44.194Z,59.50
2024-02-22T00:07:44.150Z,62.42
2024-02-22T00:08:44.211Z,64.06
2024-02-22T00:09:44.224Z,63.56
2024-02-22T00:10:44.376Z,64.51
2024-02-22T00:11:44.396Z,66.31
2024-02-22T00:12:44.373Z,68.20
2024-02-22T00:13:44.490Z,67.75
2024-02-22T00:14:44.425Z,70.25
2024-02-22T00:15:44.481Z,70.93
2024-02-22T00:16:44.581Z,72.90
2024-02-22T00:17:44.585Z,74.88
2024-02-22T00:18:44.681Z,71.46
2024-02-22T00:19:44.630Z,74.71
2024-02-22T00:20:44.662Z,73.45
2024-02-22T00:21:44.706Z,71.82
2024-02-22T00:22:44.754Z,70.27
2024-02-22T00:23:44.800Z,69.03
2024-02-22T00:24:44.830Z,69.62
2024-02-22T00:25:44.932Z,67.06
2024-02-22T00:26:44.950Z,69.41
2024-02-22T00:27:44.953Z,66.99
2024-02-22T00:28:45.071Z,68.53
2024-02-22T00:29:45.071Z,65.59
2024-02-22T00:30:45.120Z,69.44
2024-02-22T00:31:45.197Z,68.91
2024-02-22T00:32:45.284Z,69.49
2024-02-22T00:33:45.303Z,68.30
2024-02-22T00:34:45.334Z,68.92
2024-02-22T00:35:45.335Z,65.93
2024-02-22T00:36:45.406Z,64.44
2024-02-22T00:37:45.496Z,65.35
2024-02-22T00:38:45.464Z,64.09
2024-02-22T00:39:45.508Z,61.91
2024-02-22T00:40:45.604Z,63.40
2024-02-22T00:41:45.624Z,64.95
2024-02-22T00:42:45.640Z,65.18
2024-02-22T00:43:45.704Z,65.72
2024-02-22T00:44:45.759Z,62.44
2024-02-22T00:45:45.775Z,59.81
2024-02-22T00:46:45.884Z,61.49
2024-02-22T00:47:45.946Z,61.38
2024-02-22T00:48:46.069Z,60.26
2024-02-22T00:49:46.068Z,60.73
2024-02-22T00:50:46.157Z,60.93
2024-02-22T00:51:46.109Z,61.93
2024-02-22T00:52:46.227Z,61.26
2024-02-22T00:53:46.216Z,59.58
2024-02-22T00:54:46.254Z,60.65
2024-02-22T00:55:46.387Z,58.18
2024-02-22T00:56:46.353Z,58.06
2024-02-22T00:57:46.417Z,58.20
2024-02-22T00:58:46.500Z,53.70
2024-02-22T00:59:46.627Z,57.10
2024-02-22T01:00:46.618Z,56.99
2024-02-22T01:01:46.731Z,55.80
2024-02-22T01:02:46.629Z,56.36
2024-02-22T01:03:46.751Z,56.08
2024-02-22T01:04:46.883Z,55.75
2024-02-22T01:05:46.865Z,58.26
2024-02-22T01:06:46.784Z,57.39
2024-02-22T01:07:46.932Z,58.47
2024-02-22T01:08:46.904Z,60.83
2024-02-22T01:09:46.971Z,59.84
2024-02-22T01:10:47.094Z,58.58
2024-02-22T01:11:47.165Z,59.54
2024-02-22T01:12:47.123Z,60.34
2024-02-22T01:13:47.143Z,61.38
2024-02-22T01:14:47.187Z,61.53
2024-02-22T01:15:47.241Z,62.36
2024-02-22T01:16:47.324Z,62.33
2024-02-22T01:17:47.368Z,63.21
2024-02-22T01:18:47.377Z,64.94
2024-02-22T01:19:47.388Z,66.51
2024-02-22T01:20:47.435Z,65.02
2024-02-22T01:21:47.518Z,66.00
2024-02-22T01:22:47.513Z,64.08
2024-02-22T01:23:47.566Z,60.89
2024-02-22T01:24:47.566Z,60.11
2024-02-22T01:25:47.697Z,60.65
2024-02-22T01:26:47.793Z,59.10
2024-02-22T01:27:47.762Z,60.90
2024-02-22T01:28:47.799Z,58.20
2024-02-22T01:29:47.909Z,62.49
2024-02-22T01:30:47.957Z,62.56
2024-02-22T01:31:47.936Z,63.13
2024-02-22T01:33:48.026Z,66.29
2024-02-22T01:34:48.096Z,65.21
2024-02-22T01:35:48.115Z,64.68
2024-02-22T01:36:48.149Z,62.89
2024-02-22T01:37:48.239Z,62.62
2024-02-22T01:38:48.257Z,59.69
2024-02-22T01:39:48.295Z,62.43
2024-02-22T01:40:48.423Z,64.44
2024-02-22T01:41:48.371Z,62.21
2024-02-22T01:42:48.445Z,60.47
2024-02-22T01:43:48.529Z,59.79
2024-02-22T01:44:48.535Z,58.37
2024-02-22T01:45:48.593Z,57.20
2024-02-22T01:46:48.699Z,57.21
2024-02-22T01:47:48.742Z,57.45
2024-02-22T01:48:48.839Z,58.95
2024-02-22T01:49:48.810Z,61.50
2024-02-22T01:50:48.794Z,64.18
2024-02-22T01:51:48.829Z,63.27
2024-02-22T01:52:48.906Z,61.83
2024-02-22T01:53:48.895Z,60.21
2024-02-22T01:54:49.018Z,59.22
2024-02-22T01:55:48.995Z,56.69
2024-02-22T01:56:49.086Z,56.15
2024-02-22T01:57:49.087Z,55.09
2024-02-22T01:58:49.264Z,56.39
2024-02-22T01:59:49.224Z,57.14
2024-02-22T02:00:49.312Z,53.30
2024-02-22T02:01:49.330Z,54.23
2024-02-22T02:02:49.481Z,54.91
2024-02-22T02:03:49.401Z,54.99
2024-02-22T02:04:49.492Z,53.37
2024-02-22T02:05:49.480Z,53.91
2024-02-22T02:06:49.541Z,51.43
2024-02-22T02:07:49.645Z,54.28
2024-02-22T02:08:49.537Z,54.18
2024-02-22T02:09:49.597Z,56.29
2024-02-22T02:10:49.681Z,55.56
2024-02-22T02:11:49.737Z,57.12
2024-02-22T02:12:49.701Z,53.75
2024-02-22T02:13:49.761Z,56.72
2024-02-22T02:14:49.761Z,54.97
2024-02-22T02:15:49.803Z,56.89
2024-02-22T02:16:49.870Z,56.43
2024-02-22T02:17:49.824Z,57.69
2024-02-22T02:18:49.909Z,59.22
2024-02-22T02:19:49.987Z,62.76
2024-02-22T02:20:49.946Z,59.48
2024-02-22T02:21:49.933Z,62.80
2024-02-22T02:22:49.993Z,61.91
2024-02-22T02:23:49.964Z,61.12
2024-02-22T02:24:49.981Z,63.03
2024-02-22T02:25:50.068Z,59.63
2024-02-22T02:26:50.082Z,60.61
2024-02-22T02:27:50.091Z,61.04
2024-02-22T02:28:50.104Z,60.12
2024-02-22T02:29:50.108Z,60.31
2024-02-22T02:30:50.064Z,58.99
2024-02-22T02:31:50.177Z,60.56
2024-02-22T02:32:50.196Z,60.45
2024-02-22T02:33:50.246Z,60.60
2024-02-22T02:34:50.170Z,60.10
2024-02-22T02:35:50.171Z,60.93
2024-02-22T02:36:50.238Z,61.62
2024-02-22T02:37:50.340Z,61.80
2024-02-22T02:38:50.269Z,60.68
2024-02-22T02:39:50.313Z,60.67
2024-02-22T02:40:50.391Z,62.46
2024-02-22T02:41:50.328Z,62.76
2024-02-22T02:42:50.392Z,64.56
2024-02-22T02:43:50.390Z,63.88
2024-02-22T02:44:50.408Z,66.21
2024-02-22T02:45:50.377Z,68.00
2024-02-22T02:46:50.457Z,68.96
2024-02-22T02:47:50.518Z,69.53
2024-02-22T02:48:50.567Z,73.01
2024-02-22T02:49:50.592Z,70.98
2024-02-22T02:50:50.549Z,72.95
2024-02-22T02:51:50.583Z,75.43
2024-02-22T02:52:50.679Z,75.14
2024-02-22T02:53:50.759Z,77.05
2024-02-22T02:54:50.750Z,76.65
2024-02-22T02:55:50.805Z,79.71
2024-02-22T02:56:50.863Z,80.60
2024-02-22T02:57:50.919Z,80.25
2024-02-22T02:58:50.969Z,80.84
2024-02-22T02:59:50.981Z,82.79
2024-02-22T03:00:51.050Z,79.90
2024-02-22T03:01:51.156Z,80.95
2024-02-22T03:02:51.140Z,86.10
2024-02-22T03:03:51.237Z,86.57
2024-02-22T03:04:51.347Z,85.76
2024-02-22T03:05:51.315Z,87.29
2024-02-22T03:06:51.304Z,85.67
2024-02-22T03:07:51.340Z,86.75
2024-02-22T03:08:51.388Z,89.38
2024-02-22T03:09:51.457Z,90.82
2024-02-22T03:10:51.590Z,90.64
2024-02-22T03:11:51.664Z,88.92
2024-02-22T03:12:51.626Z,92.00
2024-02-22T03:13:51.676Z,91.16
2024-02-22T03:14:51.721Z,91.10
2024-02-22T03:15:51.747Z,92.43
2024-02-22T03:16:51.801Z,93.77
2024-02-22T03:17:51.922Z,95.29
2024-02-22T03:18:51.929Z,94.16
2024-02-22T03:19:51.928Z,93.97
2024-02-22T03:20:51.983Z,95.75
2024-02-22T03:21:52.011Z,95.29
2024-02-22T03:22:52.063Z,94.53
2024-02-22T03:23:52.107Z,95.73
2024-02-22T03:24:52.106Z,95.60
2024-02-22T03:25:52.344Z,101.09
2024-02-22T03:26:52.239Z,98.14
2024-02-22T03:27:52.261Z,98.08
2024-02-22T03:28:52.354Z,99.85
2024-02-22T03:29:52.386Z,100.81
2024-02-22T03:30:52.373Z,99.41
2024-02-22T03:31:52.482Z,96.69
2024-02-22T03:32:52.520Z,101.18
2024-02-22T03:33:52.578Z,103.04
2024-02-22T03:34:52.628Z,103.15
2024-02-22T03:35:52.603Z,102.01
2024-02-22T03:36:52.648Z,103.96
2024-02-22T03:37:52.737Z,104.07
2024-02-22T03:38:52.720Z,105.54
2024-02-22T03:39:52.815Z,102.44
2024-02-22T03:40:52.896Z,104.56
2024-02-22T03:41:52.861Z,103.56
2024-02-22T03:42:52.933Z,105.27
2024-02-22T03:43:53.015Z,104.22
2024-02-22T03:44:53.052Z,105.10
2024-02-22T03:45:53.111Z,105.49
2024-02-22T03:46:53.205Z,105.79
2024-02-22T03:47:53.199Z,103.81
2024-02-22T03:48:53.260Z,106.02
2024-02-22T03:49:53.253Z,106.47
2024-02-22T03:50:53.289Z,107.32
2024-02-22T03:51:53.336Z,106.19
2024-02-22T03:52:53.370Z,109.74
2024-02-22T03:53:53.364Z,109.60
2024-02-22T03:54:53.390Z,107.71
2024-02-22T03:55:53.474Z,107.18
2024-02-22T03:56:53.470Z,105.13
2024-02-22T03:57:53.554Z,108.02
2024-02-22T03:58:53.593Z,107.93
2024-02-22T03:59:53.565Z,109.08
2024-02-22T04:00:53.677Z,109.04
2024-02-22T04:01:53.706Z,107.93
2024-02-22T04:02:53.694Z,106.55
2024-02-22T04:03:53.791Z,104.76
2024-02-22T04:04:53.842Z,96.80
2024-02-22T04:05:53.904Z,92.49
2024-02-22T04:06:53.949Z,85.91
2024-02-22T04:07:54.000Z,80.03
2024-02-22T04:08:54.030Z,70.06
2024-02-22T04:09:54.043Z,65.09
2024-02-22T04:10:54.136Z,64.78
2024-02-22T04:11:54.227Z,63.48
2024-02-22T04:12:54.228Z,64.73
2024-02-22T04:13:54.313Z,67.12
2024-02-22T04:14:54.317Z,63.46
2024-02-22T04:15:54.329Z,59.20
2024-02-22T04:16:54.473Z,56.57
2024-02-22T04:17:54.494Z,56.79
2024-02-22T04:18:54.493Z,56.40
2024-02-22T04:19:54.519Z,57.59
2024-02-22T04:20:54.476Z,60.48
2024-02-22T04:21:54.479Z,60.59
2024-02-22T04:22:54.617Z,65.11
2024-02-22T04:23:54.613Z,65.78
2024-02-22T04:24:54.667Z,70.21
2024-02-22T04:25:54.763Z,70.27
2024-02-22T04:26:54.767Z,72.66
2024-02-22T04:27:54.856Z,73.55
2024-02-22T04:28:54.851Z,70.65
2024-02-22T04:29:54.895Z,70.84
2024-02-22T04:30:54.961Z,72.86
2024-02-22T04:31:55.058Z,70.48
2024-02-22T04:32:55.126Z,71.35
2024-02-22T04:33:55.127Z,68.43
2024-02-22T04:34:55.248Z,69.38
2024-02-22T04:35:55.305Z,73.49
2024-02-22T04:36:55.238Z,75.89
2024-02-22T04:37:55.332Z,78.55
2024-02-22T04:38:55.385Z,78.72
2024-02-22T04:39:55.370Z,75.30
2024-02-22T04:40:55.488Z,75.21
2024-02-22T04:41:55.491Z,72.87
2024-02-22T04:42:55.499Z,77.85
2024-02-22T04:43:55.580Z,78.53
2024-02-22T04:44:55.605Z,80.16
2024-02-22T04:45:55.719Z,83.27
2024-02-22T04:46:55.791Z,81.71
2024-02-22T04:47:55.735Z,84.47
2024-02-22T04:48:55.825Z,84.63
2024-02-22T04:49:55.894Z,87.25
2024-02-22T04:50:55.912Z,87.31
2024-02-22T04:51:55.976Z,87.24
2024-02-22T04:52:56.052Z,85.71
2024-02-22T04:53:56.069Z,86.56
2024-02-22T04:55:03.871Z,50.00
2024-02-22T04:56:03.893Z,50.00
2024-02-22T04:57:03.834Z,50.00
2024-02-22T04:58:03.972Z,50.00
2024-02-22T04:59:03.918Z,50.00
2024-02-22T05:00:03.860Z,51.80
2024-02-22T05:01:03.960Z,54.42
2024-02-22T05:02:03.891Z,52.21
2024-02-22T05:03:03.886Z,51.70
2024-02-22T05:04:03.972Z,52.20
2024-02-22T05:05:03.924Z,55.11
2024-02-22T05:06:03.927Z,54.51
2024-02-22T05:07:03.893Z,58.32
2024-02-22T05:08:03.973Z,57.49
2024-02-22T05:09:03.941Z,57.71
2024-02-22T05:10:03.875Z,56.32
2024-02-22T05:11:03.977Z,57.80
2024-02-22T05:12:03.942Z,53.09
2024-02-22T05:13:03.923Z,52.94
2024-02-22T05:14:03.921Z,51.96
2024-02-22T05:15:03.882Z,50.18
2024-02-22T05:16:03.894Z,51.79
2024-02-22T05:17:03.966Z,51.47
2024-02-22T05:18:04.031Z,50.96
2024-02-22T05:19:03.959Z,52.86
2024-02-22T05:20:03.934Z,51.81
2024-02-22T05:21:03.917Z,51.73
2024-02-22T05:22:03.918Z,51.24
2024-02-22T05:23:03.944Z,53.35
2024-02-22T05:24:03.909Z,53.51
2024-02-22T05:25:03.900Z,51.40
2024-02-22T05:26:03.971Z,52.82
2024-02-22T05:27:03.940Z,53.39
2024-02-22T05:28:03.923Z,51.39
2024-02-22T05:29:03.923Z,50.91
2024-02-22T05:30:03.910Z,50.00
2024-02-22T05:31:03.916Z,53.05
2024-02-22T05:32:03.979Z,52.52
2024-02-22T05:33:03.993Z,57.38
2024-02-22T05:34:03.934Z,54.17
2024-02-22T05:35:04.022Z,53.28
2024-02-22T05:36:03.920Z,50.21
2024-02-22T05:37:03.930Z,52.14
2024-02-22T05:38:03.979Z,49.58
2024-02-22T05:39:03.938Z,50.26
2024-02-22T05:40:03.931Z,50.00
2024-02-22T05:41:03.997Z,50.92
2024-02-22T05:42:03.940Z,56.59
2024-02-22T05:43:03.923Z,58.85
2024-02-22T05:44:03.943Z,60.23
2024-02-22T05:45:03.930Z,60.79
2024-02-22T05:46:03.964Z,63.15
2024-02-22T05:47:03.956Z,60.35
2024-02-22T05:48:04.099Z,57.58
2024-02-22T05:49:04.272Z,56.48
2024-02-22T05:50:04.111Z,58.89
2024-02-22T05:51:04.136Z,62.68
2024-02-22T05:52:04.162Z,61.93
2024-02-22T05:53:04.658Z,66.03
2024-02-22T05:54:04.273Z,62.87
2024-02-22T05:55:04.294Z,64.60
2024-02-22T05:56:04.405Z,66.68
2024-02-22T05:57:04.427Z,65.62
2024-02-22T05:58:04.467Z,64.12
2024-02-22T05:59:04.609Z,63.62
2024-02-22T06:00:04.580Z,60.56
2024-02-22T06:01:27.166Z,56.41
2024-02-22T06:02:04.756Z,56.55
2024-02-22T06:03:07.927Z,57.15
2024-02-22T06:04:05.720Z,56.66
2024-02-22T06:05:04.705Z,57.45
2024-02-22T06:06:04.651Z,57.43
2024-02-22T06:07:04.674Z,57.91
2024-02-22T06:08:04.686Z,56.87
2024-02-22T06:09:04.643Z,64.28
2024-02-22T06:10:04.631Z,62.11
2024-02-22T06:11:04.717Z,67.07
2024-02-22T06:12:04.704Z,66.11
2024-02-22T06:13:04.643Z,66.55
2024-02-22T06:14:04.648Z,65.86
2024-02-22T06:15:04.703Z,68.50
2024-02-22T06:16:04.723Z,63.05
2024-02-22T06:17:04.822Z,61.64
2024-02-22T06:19:04.973Z,61.15
2024-02-22T06:20:04.938Z,61.04
2024-02-22T06:21:04.982Z,59.06
2024-02-22T06:22:05.014Z,57.04
2024-02-22T06:23:05.103Z,55.41
2024-02-22T06:24:05.117Z,56.28
2024-02-22T06:25:05.165Z,57.59
2024-02-22T06:26:05.353Z,60.04
2024-02-22T06:27:05.254Z,59.96
2024-02-22T06:28:05.327Z,62.17
2024-02-22T06:29:05.437Z,65.28
2024-02-22T06:30:05.390Z,65.78
2024-02-22T06:31:05.513Z,66.64
2024-02-22T06:32:05.536Z,64.54
2024-02-22T06:33:05.772Z,68.78
2024-02-22T06:34:06.099Z,65.57
2024-02-22T06:35:05.708Z,62.95
2024-02-22T06:36:05.723Z,57.62
2024-02-22T06:37:05.786Z,62.47
2024-02-22T06:38:05.928Z,61.65
2024-02-22T06:39:06.040Z,60.77
2024-02-22T06:40:05.908Z,67.30
2024-02-22T06:41:06.060Z,66.78
2024-02-22T06:42:06.119Z,65.42
2024-02-22T06:43:06.072Z,62.88
2024-02-22T06:44:06.605Z,62.72
2024-02-22T06:45:06.202Z,62.67
2024-02-22T06:46:28.774Z,69.41
2024-02-22T06:47:06.293Z,69.72
2024-02-22T06:48:06.345Z,72.17
2024-02-22T06:49:06.627Z,79.41
2024-02-22T06:50:06.413Z,93.45
2024-02-22T06:51:07.291Z,116.35
2024-02-22T06:52:06.309Z,126.54
2024-02-22T06:53:06.268Z,132.77
2024-02-22T06:54:06.579Z,138.89
2024-02-22T06:55:06.298Z,133.46
2024-02-22T06:56:06.285Z,133.60
2024-02-22T06:57:06.228Z,139.78
2024-02-22T06:58:06.305Z,142.19
2024-02-22T06:59:06.651Z,146.65
2024-02-22T07:00:06.346Z,151.54
2024-02-22T07:01:06.272Z,151.39
2024-02-22T07:02:06.332Z,150.46
2024-02-22T07:03:06.546Z,149.67
2024-02-22T07:04:06.649Z,150.78
2024-02-22T07:05:06.558Z,151.98
2024-02-22T07:06:06.392Z,152.16
2024-02-22T07:07:06.480Z,153.83
2024-02-22T07:08:06.584Z,153.61
2024-02-22T07:09:06.589Z,154.04
2024-02-22T07:10:06.582Z,156.84
2024-02-22T07:11:06.755Z,160.22
2024-02-22T07:12:06.817Z,157.99
2024-02-22T07:13:06.789Z,152.45
2024-02-22T07:14:07.272Z,153.75
2024-02-22T07:15:06.848Z,157.64
2024-02-22T07:16:06.914Z,158.51
2024-02-22T07:17:07.031Z,154.23
2024-02-22T07:18:07.128Z,152.21
2024-02-22T07:19:07.163Z,151.07
2024-02-22T07:20:07.322Z,149.74
2024-02-22T07:21:07.169Z,151.57
2024-02-22T07:22:07.165Z,154.84
2024-02-22T07:23:07.374Z,157.84
2024-02-22T07:24:07.277Z,160.04
2024-02-22T07:25:07.598Z,157.96
2024-02-22T07:26:07.420Z,162.18
2024-02-22T07:27:07.444Z,163.36
2024-02-22T07:28:07.513Z,163.98
2024-02-22T07:29:11.555Z,162.80
2024-02-22T07:30:08.571Z,162.91
2024-02-22T07:31:07.528Z,163.02
2024-02-22T07:32:07.584Z,161.90
2024-02-22T07:33:07.620Z,157.46
2024-02-22T07:34:07.590Z,157.52
2024-02-22T07:35:07.656Z,155.39
2024-02-22T07:36:10.492Z,155.36
2024-02-22T07:37:07.576Z,154.38
2024-02-22T07:38:07.622Z,150.11
2024-02-22T07:39:07.639Z,144.87
2024-02-22T07:40:07.618Z,142.89
2024-02-22T07:41:07.580Z,140.42
2024-02-22T07:42:07.620Z,140.16
2024-02-22T07:43:07.583Z,139.32
2024-02-22T07:44:10.954Z,141.60
2024-02-22T07:45:07.572Z,141.73
2024-02-22T07:46:07.590Z,142.02
2024-02-22T07:47:07.630Z,142.38
2024-02-22T07:48:07.658Z,142.61
2024-02-22T07:49:07.752Z,148.46
2024-02-22T07:50:07.672Z,148.66
2024-02-22T07:51:07.576Z,149.58
2024-02-22T07:52:07.593Z,145.90
2024-02-22T07:53:07.660Z,145.80
2024-02-22T07:54:07.603Z,144.26
2024-02-22T07:55:07.628Z,141.42
2024-02-22T07:56:07.718Z,141.50
2024-02-22T07:57:07.615Z,138.72
2024-02-22T07:58:07.662Z,137.07
2024-02-22T07:59:07.614Z,135.07
2024-02-22T08:00:07.632Z,132.63
2024-02-22T08:01:07.617Z,128.35
2024-02-22T08:02:07.650Z,131.93
2024-02-22T08:03:07.579Z,129.00
2024-02-22T08:04:07.598Z,124.69
2024-02-22T08:05:07.727Z,124.34
2024-02-22T08:06:07.632Z,121.69
2024-02-22T08:07:07.681Z,120.08
2024-02-22T08:08:07.658Z,118.46
2024-02-22T08:09:07.588Z,116.07
2024-02-22T08:10:07.607Z,110.94
2024-02-22T08:11:07.724Z,102.99
2024-02-22T08:12:07.728Z,93.13
2024-02-22T08:13:07.630Z,87.98
2024-02-22T08:14:07.650Z,85.25
2024-02-22T08:15:08.265Z,80.33
2024-02-22T08:16:07.633Z,82.90
2024-02-22T08:17:07.643Z,79.93
2024-02-22T08:18:07.658Z,77.45
2024-02-22T08:19:07.607Z,70.52
2024-02-22T08:20:07.765Z,73.46
2024-02-22T08:21:07.698Z,75.96
2024-02-22T08:22:07.632Z,75.06
2024-02-22T08:23:07.709Z,78.78
2024-02-22T08:24:07.661Z,76.74
2024-02-22T08:25:07.648Z,81.93
2024-02-22T08:26:07.693Z,84.48
2024-02-22T08:27:07.678Z,87.12
2024-02-22T08:28:08.226Z,87.32
2024-02-22T08:29:07.650Z,86.39
2024-02-22T08:30:08.103Z,84.19
2024-02-22T08:31:07.645Z,86.10
2024-02-22T08:32:08.722Z,82.21
2024-02-22T08:33:07.772Z,87.55
2024-02-22T08:34:07.888Z,90.23
2024-02-22T08:35:07.803Z,86.77
2024-02-22T08:36:07.779Z,82.08
2024-02-22T08:37:07.842Z,79.30
2024-02-22T08:38:07.890Z,75.93
2024-02-22T08:39:07.903Z,73.64
2024-02-22T08:40:19.908Z,77.35
2024-02-22T08:41:08.981Z,77.46
2024-02-22T08:42:07.925Z,78.39
2024-02-22T08:43:07.932Z,81.22
2024-02-22T08:44:07.997Z,85.32
2024-02-22T08:45:07.965Z,92.75
2024-02-22T08:46:07.958Z,96.78
2024-02-22T08:47:08.014Z,103.12
2024-02-22T08:48:08.113Z,105.20
2024-02-22T08:49:08.052Z,105.56
2024-02-22T08:50:08.218Z,102.96
2024-02-22T08:51:08.540Z,98.23
2024-02-22T08:52:08.099Z,92.15
2024-02-22T08:53:08.885Z,83.28
2024-02-22T08:54:08.046Z,74.02
2024-02-22T08:55:07.974Z,66.77
2024-02-22T08:56:08.035Z,60.86
2024-02-22T08:57:08.045Z,55.70
2024-02-22T08:58:08.034Z,53.27
2024-02-22T08:59:08.134Z,50.53
2024-02-22T09:00:08.086Z,52.93
2024-02-22T09:01:08.251Z,56.24
2024-02-22T09:02:08.312Z,57.58
2024-02-22T09:03:08.269Z,57.53
2024-02-22T09:04:08.277Z,58.42
2024-02-22T09:05:08.659Z,55.89
2024-02-22T09:06:08.467Z,55.19
2024-02-22T09:07:08.533Z,57.28
2024-02-22T09:08:08.564Z,57.91
2024-02-22T09:09:08.617Z,57.45
2024-02-22T09:10:08.510Z,57.31
2024-02-22T09:11:08.639Z,60.64
2024-02-22T09:12:08.673Z,62.80
2024-02-22T09:13:08.648Z,64.58
2024-02-22T09:14:08.648Z,65.37
2024-02-22T09:15:08.712Z,68.96
2024-02-22T09:16:08.720Z,73.26
2024-02-22T09:17:08.788Z,77.03
2024-02-22T09:18:08.867Z,79.56
2024-02-22T09:19:08.837Z,83.60
2024-02-22T09:20:08.916Z,88.51
2024-02-22T09:21:08.838Z,92.45
2024-02-22T09:22:08.831Z,94.81
2024-02-22T09:23:08.938Z,98.74
2024-02-22T09:24:08.946Z,101.06
2024-02-22T09:25:08.989Z,103.21
2024-02-22T09:26:09.096Z,107.28
2024-02-22T09:27:09.076Z,112.48
2024-02-22T09:28:09.633Z,115.06
2024-02-22T09:29:09.206Z,119.24
2024-02-22T09:30:09.217Z,120.07
2024-02-22T09:31:09.663Z,120.88
2024-02-22T09:32:09.350Z,115.89
2024-02-22T09:33:09.530Z,117.60
2024-02-22T09:34:09.668Z,118.13
2024-02-22T09:35:09.528Z,113.06
2024-02-22T09:36:09.816Z,112.87
2024-02-22T09:37:09.479Z,110.49
2024-02-22T09:38:09.626Z,109.73
2024-02-22T09:39:09.559Z,108.99
2024-02-22T09:40:09.597Z,105.63
2024-02-22T09:41:09.712Z,101.59
2024-02-22T09:42:09.647Z,99.14
2024-02-22T09:43:09.722Z,89.44
2024-02-22T09:44:09.839Z,86.45
2024-02-22T09:45:09.739Z,79.04
2024-02-22T09:46:09.808Z,73.26
2024-02-22T09:47:09.908Z,70.59
2024-02-22T09:48:09.929Z,65.00
2024-02-22T09:49:09.905Z,58.19
2024-02-22T09:50:09.944Z,50.37
2024-02-22T09:51:10.133Z,52.52
2024-02-22T09:52:09.954Z,49.68
2024-02-22T09:53:10.031Z,49.46
2024-02-22T09:54:10.008Z,50.24
2024-02-22T09:55:10.066Z,49.51
2024-02-22T09:56:10.133Z,48.64
2024-02-22T09:57:10.318Z,51.55
2024-02-22T09:58:10.178Z,49.61
2024-02-22T09:59:10.266Z,52.37
2024-02-22T10:00:10.295Z,51.49
2024-02-22T10:01:10.722Z,51.00
2024-02-22T10:02:10.394Z,53.66
2024-02-22T10:03:12.249Z,54.46
2024-02-22T10:04:10.477Z,51.14
2024-02-22T10:05:10.744Z,50.00
2024-02-22T10:06:10.713Z,49.87
2024-02-22T10:07:10.647Z,50.00
2024-02-22T10:08:10.734Z,50.07
2024-02-22T10:09:10.752Z,50.00
2024-02-22T10:10:10.776Z,51.16
2024-02-22T10:11:10.924Z,50.19
2024-02-22T10:12:11.133Z,50.00
2024-02-22T10:13:12.010Z,50.00
2024-02-22T10:14:11.076Z,49.60
2024-02-22T10:15:11.225Z,50.00
2024-02-22T10:16:11.032Z,50.19
2024-02-22T10:17:11.125Z,50.00
2024-02-22T10:18:11.204Z,55.93
2024-02-22T10:19:11.267Z,53.75
2024-02-22T10:20:11.807Z,50.00
2024-02-22T10:21:12.629Z,50.00
2024-02-22T10:22:11.306Z,56.68
2024-02-22T10:23:11.593Z,58.10
2024-02-22T10:24:11.418Z,51.48
2024-02-22T10:25:11.482Z,50.10
2024-02-22T10:26:11.541Z,53.29
2024-02-22T10:27:11.623Z,55.18
2024-02-22T10:28:11.660Z,50.67
2024-02-22T10:29:11.697Z,50.00
2024-02-22T10:30:11.766Z,50.41
2024-02-22T10:31:11.740Z,51.56
2024-02-22T10:32:11.796Z,50.04
2024-02-22T10:33:11.871Z,51.60
2024-02-22T10:34:11.903Z,50.86
2024-02-22T10:35:11.902Z,51.75
2024-02-22T10:36:12.207Z,54.12
2024-02-22T10:37:11.898Z,51.31
2024-02-22T10:38:11.954Z,50.17
2024-02-22T10:39:11.966Z,54.53
2024-02-22T10:40:12.007Z,53.24
2024-02-22T10:41:12.270Z,51.28
2024-02-22T10:42:12.148Z,57.33
2024-02-22T10:43:12.083Z,55.98
2024-02-22T10:44:12.163Z,54.26
2024-02-22T10:45:12.654Z,53.45
2024-02-22T10:46:12.157Z,53.45
2024-02-22T10:47:12.211Z,59.53
2024-02-22T10:48:12.271Z,52.67
2024-02-22T10:49:12.417Z,50.00
2024-02-22T10:50:12.246Z,51.75
2024-02-22T10:51:15.211Z,48.53
2024-02-22T10:52:12.708Z,50.00
2024-02-22T10:53:12.349Z,50.27
2024-02-22T10:54:12.306Z,54.16
2024-02-22T10:55:12.247Z,51.84
2024-02-22T10:56:12.327Z,53.04
2024-02-22T10:57:12.323Z,53.52
2024-02-22T10:58:12.293Z,54.59
2024-02-22T10:59:12.287Z,55.76
2024-02-22T11:00:13.296Z,55.79
2024-02-22T11:01:12.428Z,53.42
2024-02-22T11:02:12.380Z,51.50
2024-02-22T11:03:12.303Z,54.94
2024-02-22T11:04:12.360Z,51.33
2024-02-22T11:05:12.528Z,53.47
2024-02-22T11:06:12.253Z,52.35
2024-02-22T11:07:12.319Z,53.62
2024-02-22T11:08:12.341Z,51.71
2024-02-22T11:09:12.259Z,52.88
2024-02-22T11:10:12.321Z,53.66
2024-02-22T11:11:12.358Z,52.28
2024-02-22T11:12:12.715Z,51.29
2024-02-22T11:13:12.272Z,53.04
2024-02-22T11:14:12.329Z,52.92
2024-02-22T11:15:12.322Z,56.82
2024-02-22T11:16:12.312Z,47.97
2024-02-22T11:17:12.734Z,59.94
2024-02-22T11:18:12.433Z,59.93
2024-02-22T11:19:12.350Z,56.61
2024-02-22T11:20:12.408Z,56.79
2024-02-22T11:21:12.288Z,51.70
2024-02-22T11:22:12.310Z,65.27
2024-02-22T11:23:12.433Z,63.77
2024-02-22T11:24:12.420Z,68.29
2024-02-22T11:25:12.347Z,65.87
2024-02-22T11:26:12.341Z,58.22
2024-02-22T11:27:12.660Z,64.59
2024-02-22T11:28:12.379Z,70.16
2024-02-22T11:29:12.589Z,69.19
2024-02-22T11:30:12.410Z,70.36
2024-02-22T11:31:12.470Z,75.83
2024-02-22T11:32:12.551Z,72.06
2024-02-22T11:33:12.656Z,75.40
2024-02-22T11:34:12.665Z,73.73
2024-02-22T11:35:12.670Z,75.47
2024-02-22T11:36:12.638Z,78.21
2024-02-22T11:37:13.353Z,81.94
2024-02-22T11:38:12.954Z,77.92
2024-02-22T11:39:12.935Z,83.29
2024-02-22T11:40:12.986Z,87.28
2024-02-22T11:41:13.063Z,91.29
2024-02-22T11:42:13.247Z,100.16
2024-02-22T11:43:13.099Z,108.52
2024-02-22T11:44:13.311Z,113.34
2024-02-22T11:45:13.237Z,121.38
2024-02-22T11:46:13.372Z,131.22
2024-02-22T11:47:13.342Z,139.83
2024-02-22T11:48:13.409Z,148.57
2024-02-22T11:49:13.479Z,154.62
2024-02-22T11:50:13.495Z,157.28
2024-02-22T11:51:15.208Z,163.55
2024-02-22T11:52:13.526Z,162.74
2024-02-22T11:53:13.669Z,170.84
2024-02-22T11:54:13.649Z,180.84
2024-02-22T11:55:13.708Z,185.09
2024-02-22T11:56:13.756Z,192.36
2024-02-22T11:57:15.196Z,196.14
2024-02-22T11:58:13.781Z,200.00
2024-02-22T11:59:13.865Z,198.38
2024-02-22T12:00:13.815Z,200.00
2024-02-22T12:01:13.916Z,197.68
2024-02-22T12:02:14.900Z,198.96
2024-02-22T12:03:15.332Z,198.43
2024-02-22T12:04:13.939Z,196.89
2024-02-22T12:05:14.168Z,197.92
2024-02-22T12:06:14.132Z,199.71
2024-02-22T12:07:14.442Z,199.48
2024-02-22T12:08:14.106Z,199.94
2024-02-22T12:09:15.400Z,198.30
2024-02-22T12:10:14.116Z,200.00
2024-02-22T12:11:14.276Z,199.79
2024-02-22T12:12:14.278Z,197.39
2024-02-22T12:13:14.211Z,200.00
2024-02-22T12:14:14.237Z,199.03
2024-02-22T12:15:16.420Z,198.77
2024-02-22T12:16:14.293Z,198.54
2024-02-22T12:17:14.283Z,197.94
2024-02-22T12:18:14.286Z,198.89
2024-02-22T12:19:14.292Z,195.82
2024-02-22T12:20:14.472Z,195.03
2024-02-22T12:21:14.253Z,197.38
2024-02-22T12:22:14.790Z,198.63
2024-02-22T12:23:14.250Z,197.93
2024-02-22T12:24:14.244Z,200.56
2024-02-22T12:25:14.268Z,197.98
2024-02-22T12:26:14.247Z,199.25
2024-02-22T12:27:16.118Z,200.00
2024-02-22T12:28:14.223Z,200.17
2024-02-22T12:29:14.307Z,201.84
2024-02-22T12:30:14.249Z,208.28
2024-02-22T12:31:14.396Z,224.52
2024-02-22T12:32:14.789Z,246.95
2024-02-22T12:33:14.514Z,239.22
2024-02-22T12:34:18.355Z,233.15
2024-02-22T12:35:14.260Z,233.41
2024-02-22T12:36:14.232Z,234.52
2024-02-22T12:37:14.804Z,237.11
2024-02-22T12:38:14.288Z,241.07
2024-02-22T12:39:14.269Z,243.76
2024-02-22T12:40:14.281Z,230.86
2024-02-22T12:41:14.327Z,217.25
2024-02-22T12:42:14.281Z,206.51
2024-02-22T12:43:18.624Z,199.46
2024-02-22T12:44:15.292Z,199.52
2024-02-22T12:45:14.958Z,199.76
2024-02-22T12:46:14.345Z,199.96
2024-02-22T12:47:14.855Z,201.43
2024-02-22T12:48:14.330Z,202.19
2024-02-22T12:49:14.448Z,200.05